Time;durP1;ratioP1;P1;durP2;ratioP2;P2;SDS_P1;SDS_P2;PMS_P1;PMS_P2;Temp;Humidity;BMP_temperature;BMP_pressure;BME280_temperature;BME280_humidity;BME280_pressure;Samples;Min_cycle;Max_cycle;Signal;HPM_P1;HPM_P2
2022/10/16 00:01:16;;;;;;;2.63;2.40;;;10.30;61.40;;;;;;5043116;28;20022;-57
2022/10/16 00:03:43;;;;;;;2.53;2.25;;;10.30;61.40;;;;;;5031163;28;20082;-57
2022/10/16 00:06:10;;;;;;;3.15;2.70;;;10.30;61.50;;;;;;5031515;28;20026;-57
2022/10/16 00:08:36;;;;;;;3.25;2.45;;;10.40;61.60;;;;;;5031519;28;20152;-57
2022/10/16 00:11:11;;;;;;;2.75;2.55;;;10.30;61.50;;;;;;5031106;28;20122;-57
2022/10/16 00:13:39;;;;;;;3.22;2.42;;;10.40;61.60;;;;;;5037430;28;20023;-58
2022/10/16 00:16:05;;;;;;;2.83;2.35;;;10.40;61.60;;;;;;5035783;28;20608;-59
2022/10/16 00:18:31;;;;;;;3.13;2.60;;;10.30;61.60;;;;;;5029184;28;20037;-57
2022/10/16 00:21:03;;;;;;;2.50;2.30;;;10.30;61.80;;;;;;5030634;28;20038;-57
2022/10/16 00:23:29;;;;;;;2.63;2.30;;;10.40;62.00;;;;;;5034677;28;20037;-58
2022/10/16 00:26:00;;;;;;;2.92;2.53;;;10.30;61.80;;;;;;5030088;28;20037;-59
2022/10/16 00:28:26;;;;;;;2.63;2.40;;;10.30;62.00;;;;;;5030928;28;20048;-58
2022/10/16 00:30:52;;;;;;;3.10;2.55;;;10.30;62.00;;;;;;5041581;28;20044;-57
2022/10/16 00:33:18;;;;;;;3.28;2.47;;;10.30;62.00;;;;;;5050531;28;20576;-58
2022/10/16 00:35:44;;;;;;;2.80;2.53;;;10.20;62.20;;;;;;5050470;28;20028;-58
2022/10/16 00:38:10;;;;;;;2.83;2.60;;;10.20;62.10;;;;;;5044909;28;20053;-58
2022/10/16 00:40:35;;;;;;;3.00;2.60;;;10.20;62.20;;;;;;5048241;28;20380;-57
2022/10/16 00:43:01;;;;;;;2.83;2.60;;;10.20;62.30;;;;;;5048777;28;20078;-57
2022/10/16 00:45:27;;;;;;;2.92;2.63;;;10.20;62.30;;;;;;5051028;28;20025;-57
2022/10/16 00:47:55;;;;;;;3.25;2.90;;;10.10;62.40;;;;;;5048623;28;20033;-59
2022/10/16 00:50:26;;;;;;;3.45;2.70;;;10.10;62.50;;;;;;5050975;28;20032;-58
2022/10/16 00:52:53;;;;;;;3.30;2.90;;;10.10;62.50;;;;;;5050659;28;20025;-57
2022/10/16 00:55:19;;;;;;;3.40;2.80;;;10.10;62.60;;;;;;5051024;28;20025;-57
2022/10/16 00:57:45;;;;;;;3.67;2.83;;;10.10;62.60;;;;;;5050968;28;20369;-57
2022/10/16 01:00:15;;;;;;;4.20;3.33;;;10.10;62.60;;;;;;5053848;28;20031;-57
2022/10/16 01:02:41;;;;;;;4.00;3.17;;;10.20;62.60;;;;;;5054698;28;20025;-57
2022/10/16 01:05:07;;;;;;;3.70;3.20;;;10.20;62.60;;;;;;5054639;28;20808;-57
2022/10/16 01:08:01;;;;;;;5.32;3.67;;;10.20;62.70;;;;;;5054649;28;20053;-58
2022/10/16 01:10:36;;;;;;;4.53;3.50;;;10.20;62.60;;;;;;5065629;28;20031;-57
2022/10/16 01:13:07;;;;;;;3.70;3.05;;;10.20;62.70;;;;;;5054334;28;20508;-57
2022/10/16 01:16:13;;;;;;;4.10;3.33;;;10.20;62.70;;;;;;5054119;28;20037;-58
2022/10/16 01:18:46;;;;;;;4.05;3.20;;;10.20;62.70;;;;;;5058315;28;20092;-57
2022/10/16 01:21:36;;;;;;;4.00;3.28;;;10.20;62.80;;;;;;5054355;28;20033;-56
2022/10/16 01:24:30;;;;;;;3.90;2.80;;;10.20;62.80;;;;;;5051993;28;20127;-57
2022/10/16 01:27:17;;;;;;;3.85;3.20;;;10.20;62.80;;;;;;5054075;28;20044;-58
2022/10/16 01:29:56;;;;;;;3.85;2.95;;;10.20;62.80;;;;;;5055558;28;20032;-57
2022/10/16 01:32:27;;;;;;;3.88;2.92;;;10.20;62.80;;;;;;5054083;28;20519;-56
2022/10/16 01:35:02;;;;;;;3.58;2.80;;;10.10;62.90;;;;;;5053006;28;20155;-58
2022/10/16 01:37:54;;;;;;;3.08;2.78;;;10.10;63.00;;;;;;5054330;28;20029;-58
2022/10/16 01:40:23;;;;;;;3.50;2.72;;;10.00;63.00;;;;;;5053820;28;20016;-58
2022/10/16 01:42:54;;;;;;;3.17;2.88;;;10.00;63.20;;;;;;5053375;28;20029;-59
2022/10/16 01:45:21;;;;;;;4.25;2.80;;;10.00;63.40;;;;;;5052657;28;20516;-58
2022/10/16 01:47:50;;;;;;;3.97;3.03;;;9.90;63.40;;;;;;5052749;28;20025;-58
2022/10/16 01:50:18;;;;;;;5.47;3.40;;;9.90;63.40;;;;;;5047683;28;20036;-58
2022/10/16 01:52:47;;;;;;;3.35;3.00;;;9.90;63.60;;;;;;5051343;28;20741;-57
2022/10/16 01:55:17;;;;;;;4.60;2.80;;;9.90;63.80;;;;;;5040929;28;20432;-57
2022/10/16 01:57:49;;;;;;;3.88;3.10;;;9.90;63.90;;;;;;5053541;28;20387;-57
2022/10/16 02:00:19;;;;;;;4.60;2.85;;;9.90;63.90;;;;;;5053602;28;20028;-58
2022/10/16 02:02:48;;;;;;;3.20;2.60;;;9.90;63.90;;;;;;5053578;28;20466;-59
2022/10/16 02:05:32;;;;;;;3.70;2.70;;;9.90;64.00;;;;;;5053576;28;20119;-58
2022/10/16 02:07:58;;;;;;;3.47;2.78;;;9.90;64.00;;;;;;5051614;28;20025;-57
2022/10/16 02:10:25;;;;;;;3.70;3.10;;;9.90;64.00;;;;;;5053087;28;20044;-57
2022/10/16 02:13:00;;;;;;;3.38;2.72;;;9.90;64.10;;;;;;5053205;28;20028;-57
2022/10/16 02:15:25;;;;;;;2.92;2.53;;;9.90;64.10;;;;;;5036185;28;20021;-58
2022/10/16 02:17:51;;;;;;;3.92;2.83;;;9.90;64.10;;;;;;5051672;28;20104;-58
2022/10/16 02:20:18;;;;;;;2.60;2.40;;;9.90;64.10;;;;;;5053631;28;20105;-58
2022/10/16 02:22:48;;;;;;;3.75;3.08;;;9.80;64.00;;;;;;5053138;28;20072;-59
2022/10/16 02:25:31;;;;;;;3.33;2.80;;;9.80;64.10;;;;;;5051874;28;20570;-60
2022/10/16 02:28:14;;;;;;;3.08;2.75;;;9.70;64.20;;;;;;5046354;28;20020;-57
2022/10/16 02:30:56;;;;;;;2.70;2.50;;;9.70;64.40;;;;;;5054232;28;20037;-58
2022/10/16 02:33:24;;;;;;;3.47;2.50;;;9.60;64.50;;;;;;5039254;28;20120;-58
2022/10/16 02:35:51;;;;;;;4.45;3.13;;;9.60;64.60;;;;;;5047975;28;20803;-57
2022/10/16 02:38:18;;;;;;;2.88;2.58;;;9.60;64.80;;;;;;5029971;28;20025;-57
2022/10/16 02:40:44;;;;;;;4.07;2.90;;;9.60;64.90;;;;;;5039532;28;20021;-57
2022/10/16 02:43:10;;;;;;;3.50;2.90;;;9.60;64.90;;;;;;5045929;28;20035;-57
2022/10/16 02:45:36;;;;;;;3.65;2.75;;;9.60;65.00;;;;;;5039338;28;20031;-58
2022/10/16 02:48:02;;;;;;;3.45;2.70;;;9.60;65.00;;;;;;5046689;28;20021;-57
2022/10/16 02:50:27;;;;;;;3.78;2.78;;;9.60;65.00;;;;;;5043686;28;20057;-57
2022/10/16 02:52:53;;;;;;;3.58;2.70;;;9.60;65.10;;;;;;5035882;28;20417;-57
2022/10/16 02:55:19;;;;;;;4.22;3.03;;;9.60;65.10;;;;;;5051823;28;20435;-57
2022/10/16 02:57:44;;;;;;;3.22;2.78;;;9.50;65.10;;;;;;5044934;28;20064;-58
2022/10/16 03:00:14;;;;;;;4.10;3.10;;;9.50;65.20;;;;;;5041140;28;20029;-58
2022/10/16 03:02:40;;;;;;;2.90;2.60;;;9.50;65.20;;;;;;5033471;28;20029;-57
2022/10/16 03:05:06;;;;;;;3.75;2.75;;;9.50;65.20;;;;;;5032466;28;20365;-59
2022/10/16 03:07:31;;;;;;;3.50;2.97;;;9.50;65.30;;;;;;5015490;28;20025;-58
2022/10/16 03:09:59;;;;;;;3.70;3.00;;;9.50;65.30;;;;;;5033683;28;20033;-58
2022/10/16 03:12:26;;;;;;;4.65;3.33;;;9.50;65.40;;;;;;5029103;28;21034;-58
2022/10/16 03:14:51;;;;;;;4.10;3.10;;;9.50;65.50;;;;;;5036330;28;20079;-58
2022/10/16 03:17:17;;;;;;;4.38;3.35;;;9.50;66.30;;;;;;5030438;28;20041;-58
2022/10/16 03:19:43;;;;;;;3.83;3.38;;;9.50;65.70;;;;;;5032787;28;20026;-57
2022/10/16 03:22:08;;;;;;;4.93;3.15;;;9.50;65.70;;;;;;5031139;28;20029;-57
2022/10/16 03:24:34;;;;;;;3.30;2.85;;;9.50;65.70;;;;;;5032374;28;20033;-58
2022/10/16 03:27:00;;;;;;;3.75;3.08;;;9.50;65.70;;;;;;5031919;28;20477;-57
2022/10/16 03:29:26;;;;;;;3.70;3.10;;;9.50;65.70;;;;;;5033016;28;20045;-57
2022/10/16 03:31:51;;;;;;;3.60;2.75;;;9.50;65.80;;;;;;5044397;28;20445;-58
2022/10/16 03:34:17;;;;;;;3.63;2.83;;;9.40;65.70;;;;;;5042635;28;20017;-59
2022/10/16 03:36:43;;;;;;;4.63;3.50;;;9.40;65.80;;;;;;5038593;28;20074;-57
2022/10/16 03:39:08;;;;;;;3.72;3.30;;;9.40;66.20;;;;;;5035417;28;20101;-57
2022/10/16 03:41:34;;;;;;;4.15;3.15;;;9.40;66.40;;;;;;5045274;28;20104;-57
2022/10/16 03:44:00;;;;;;;4.15;3.70;;;9.40;66.50;;;;;;5040058;28;20575;-57
2022/10/16 03:46:25;;;;;;;4.60;3.83;;;9.40;67.00;;;;;;5050833;28;20025;-57
2022/10/16 03:48:51;;;;;;;5.30;4.30;;;9.40;67.40;;;;;;5043194;28;20084;-57
2022/10/16 03:51:17;;;;;;;4.55;3.92;;;9.50;67.80;;;;;;5044824;28;20025;-58
2022/10/16 03:53:42;;;;;;;4.80;4.03;;;9.60;68.10;;;;;;5040120;28;20108;-57
2022/10/16 03:56:08;;;;;;;6.10;4.68;;;9.60;68.50;;;;;;5046163;28;20025;-58
2022/10/16 03:58:33;;;;;;;7.75;4.28;;;9.70;68.70;;;;;;5037891;28;20033;-57
2022/10/16 04:00:59;;;;;;;5.05;3.90;;;9.70;68.80;;;;;;5045623;28;20488;-57
2022/10/16 04:03:25;;;;;;;4.97;4.03;;;9.70;69.20;;;;;;5046469;28;20028;-58
2022/10/16 04:05:50;;;;;;;5.88;4.47;;;9.80;69.60;;;;;;5047799;28;20065;-59
2022/10/16 04:08:16;;;;;;;5.20;4.13;;;9.80;69.50;;;;;;5038643;28;20032;-57
2022/10/16 04:10:45;;;;;;;5.25;4.30;;;9.80;69.70;;;;;;5045285;28;20455;-57
2022/10/16 04:13:11;;;;;;;6.03;4.25;;;9.80;69.90;;;;;;5031828;28;20029;-57
2022/10/16 04:15:37;;;;;;;5.95;4.60;;;9.80;70.10;;;;;;5031761;28;20104;-57
2022/10/16 04:18:03;;;;;;;4.72;4.10;;;9.90;70.30;;;;;;5031167;28;20025;-57
2022/10/16 04:20:29;;;;;;;5.47;4.10;;;9.90;70.50;;;;;;5036062;28;20101;-57
2022/10/16 04:22:55;;;;;;;4.55;3.78;;;9.90;70.60;;;;;;5046394;28;20048;-57
2022/10/16 04:25:21;;;;;;;5.18;3.42;;;9.90;70.80;;;;;;5045324;28;20380;-57
2022/10/16 04:27:47;;;;;;;5.28;4.07;;;9.90;71.50;;;;;;5050675;28;20568;-57
2022/10/16 04:30:13;;;;;;;5.40;3.80;;;9.90;71.10;;;;;;5036581;28;20025;-57
2022/10/16 04:32:39;;;;;;;6.80;4.80;;;9.90;71.30;;;;;;5050517;28;20041;-58
2022/10/16 04:35:05;;;;;;;7.28;4.70;;;10.00;71.40;;;;;;5050684;28;20556;-57
2022/10/16 04:37:30;;;;;;;5.47;4.00;;;10.00;71.50;;;;;;5047381;28;20021;-58
2022/10/16 04:39:56;;;;;;;6.20;4.70;;;10.00;71.60;;;;;;5049630;28;20380;-58
2022/10/16 04:42:22;;;;;;;6.55;4.63;;;10.10;71.70;;;;;;5050653;28;20043;-57
2022/10/16 04:44:47;;;;;;;5.57;4.35;;;10.10;71.70;;;;;;5050953;28;20021;-58
2022/10/16 04:47:13;;;;;;;5.55;4.60;;;10.10;71.70;;;;;;5050575;28;20078;-57
2022/10/16 04:49:39;;;;;;;5.25;4.20;;;10.10;71.90;;;;;;5050975;28;20388;-57
2022/10/16 04:52:05;;;;;;;5.35;4.00;;;10.10;71.90;;;;;;5050439;28;20462;-57
2022/10/16 04:54:31;;;;;;;5.18;4.38;;;10.10;72.00;;;;;;5051798;28;20039;-58
2022/10/16 04:56:56;;;;;;;5.20;3.67;;;10.20;72.20;;;;;;5049812;28;20107;-57
2022/10/16 04:59:23;;;;;;;5.65;4.07;;;10.20;72.20;;;;;;5050625;28;20454;-58
2022/10/16 05:01:48;;;;;;;4.93;3.80;;;10.20;72.30;;;;;;5050437;28;20031;-58
2022/10/16 05:04:14;;;;;;;4.93;3.90;;;10.20;72.40;;;;;;5051153;28;20029;-57
2022/10/16 05:06:41;;;;;;;5.18;4.05;;;10.30;72.50;;;;;;5049602;28;20013;-58
2022/10/16 05:09:08;;;;;;;5.18;3.85;;;10.30;72.50;;;;;;5050114;28;20053;-58
2022/10/16 05:11:34;;;;;;;5.43;3.78;;;10.40;72.60;;;;;;5050871;28;20071;-57
2022/10/16 05:13:59;;;;;;;4.82;3.65;;;10.40;72.50;;;;;;5048278;28;20121;-58
2022/10/16 05:16:25;;;;;;;5.53;4.05;;;10.40;72.60;;;;;;5050452;28;20104;-57
2022/10/16 05:18:54;;;;;;;4.57;3.60;;;10.40;72.60;;;;;;5050260;28;20025;-59
2022/10/16 05:21:20;;;;;;;5.13;4.20;;;10.40;72.70;;;;;;5060141;28;20057;-58
2022/10/16 05:23:46;;;;;;;5.90;4.30;;;10.50;72.90;;;;;;5032026;28;20035;-57
2022/10/16 05:26:11;;;;;;;4.93;3.72;;;10.40;72.80;;;;;;5050451;28;20028;-57
2022/10/16 05:28:37;;;;;;;4.65;3.55;;;10.50;72.90;;;;;;5051034;28;20036;-58
2022/10/16 05:31:07;;;;;;;4.90;3.58;;;10.50;72.90;;;;;;5049583;28;20119;-58
2022/10/16 05:33:33;;;;;;;5.20;4.05;;;10.50;73.10;;;;;;5050005;28;20048;-57
2022/10/16 05:36:04;;;;;;;4.28;3.55;;;10.60;73.20;;;;;;5049139;28;20073;-58
2022/10/16 05:38:30;;;;;;;4.22;3.55;;;10.60;73.30;;;;;;5046661;28;20037;-57
2022/10/16 05:40:56;;;;;;;4.90;3.90;;;10.70;73.30;;;;;;5050170;28;20040;-58
2022/10/16 05:43:22;;;;;;;4.35;3.42;;;10.70;73.30;;;;;;5049158;28;20033;-57
2022/10/16 05:46:02;;;;;;;5.10;4.07;;;10.80;73.40;;;;;;5053634;28;20025;-58
2022/10/16 05:48:28;;;;;;;5.20;4.30;;;10.80;73.50;;;;;;5053173;28;20384;-58
2022/10/16 05:50:58;;;;;;;6.28;4.22;;;10.90;73.60;;;;;;5055458;28;20027;-57
2022/10/16 05:53:25;;;;;;;4.80;3.67;;;11.00;73.50;;;;;;5053640;28;20027;-58
2022/10/16 05:55:55;;;;;;;5.95;4.07;;;11.00;73.20;;;;;;5054099;28;20551;-58
2022/10/16 05:58:21;;;;;;;5.65;4.07;;;11.10;73.10;;;;;;5053583;28;20112;-58
2022/10/16 06:00:58;;;;;;;4.93;3.97;;;11.20;73.10;;;;;;5053534;28;20024;-56
2022/10/16 06:03:24;;;;;;;6.88;4.43;;;11.20;73.00;;;;;;5042162;28;20052;-56
2022/10/16 06:05:50;;;;;;;5.47;3.95;;;11.30;72.90;;;;;;5051708;28;20057;-59
2022/10/16 06:08:16;;;;;;;6.70;4.70;;;11.30;72.90;;;;;;5053509;28;20151;-57
2022/10/16 06:10:43;;;;;;;5.82;4.35;;;11.40;72.90;;;;;;5053419;28;20515;-57
2022/10/16 06:13:09;;;;;;;6.53;4.65;;;11.40;72.70;;;;;;5053126;28;20448;-58
2022/10/16 06:15:35;;;;;;;5.70;4.35;;;11.40;72.60;;;;;;5053453;28;20068;-57
2022/10/16 06:18:00;;;;;;;5.35;4.10;;;11.40;72.50;;;;;;5053257;28;20506;-57
2022/10/16 06:20:26;;;;;;;5.55;4.30;;;11.40;72.60;;;;;;5053469;28;20449;-58
2022/10/16 06:22:51;;;;;;;6.85;4.35;;;11.30;72.70;;;;;;5052528;28;20116;-57
2022/10/16 06:25:17;;;;;;;6.50;4.55;;;11.40;72.90;;;;;;5053051;28;20029;-58
2022/10/16 06:27:43;;;;;;;7.10;4.82;;;11.40;73.10;;;;;;5052943;28;20027;-57
2022/10/16 06:30:09;;;;;;;5.63;4.32;;;11.40;73.20;;;;;;5054434;28;20424;-57
2022/10/16 06:32:34;;;;;;;5.45;4.22;;;11.40;73.30;;;;;;5052692;28;20048;-57
2022/10/16 06:35:00;;;;;;;7.18;5.18;;;11.40;73.40;;;;;;5052718;28;20037;-58
2022/10/16 06:37:27;;;;;;;5.35;4.28;;;11.40;73.40;;;;;;5051141;28;20029;-57
2022/10/16 06:39:52;;;;;;;7.00;5.07;;;11.50;73.50;;;;;;5051883;28;20025;-57
2022/10/16 06:42:19;;;;;;;10.82;6.40;;;11.50;74.10;;;;;;5052781;28;20086;-57
2022/10/16 06:44:44;;;;;;;8.82;6.03;;;11.50;73.40;;;;;;5052650;28;20075;-57
2022/10/16 06:47:10;;;;;;;8.93;6.78;;;11.50;73.40;;;;;;5056990;28;20410;-57
2022/10/16 06:49:36;;;;;;;9.15;6.80;;;11.50;73.30;;;;;;5058625;28;20078;-57
2022/10/16 06:52:02;;;;;;;8.63;6.70;;;11.50;73.20;;;;;;5036911;28;20416;-57
2022/10/16 06:54:28;;;;;;;9.15;6.38;;;11.40;73.20;;;;;;5052615;28;20017;-57
2022/10/16 06:56:54;;;;;;;9.40;6.10;;;11.40;73.30;;;;;;5051965;28;20055;-57
2022/10/16 06:59:21;;;;;;;8.05;5.68;;;11.30;73.50;;;;;;5052554;28;20033;-57
2022/10/16 07:01:46;;;;;;;7.95;5.95;;;11.30;73.70;;;;;;5052501;28;20017;-57
2022/10/16 07:04:12;;;;;;;9.13;5.90;;;11.30;73.70;;;;;;5052548;28;20039;-57
2022/10/16 07:06:38;;;;;;;8.23;5.93;;;11.30;73.90;;;;;;5051359;28;20037;-57
2022/10/16 07:09:07;;;;;;;6.00;5.40;;;11.30;73.90;;;;;;5046936;28;20025;-57
2022/10/16 07:11:33;;;;;;;8.65;5.70;;;11.30;74.00;;;;;;5060348;28;20036;-57
2022/10/16 07:13:59;;;;;;;7.53;5.75;;;11.30;74.00;;;;;;5050171;28;20028;-57
2022/10/16 07:16:30;;;;;;;7.70;5.10;;;11.40;74.00;;;;;;5053784;28;20375;-58
2022/10/16 07:18:58;;;;;;;6.72;4.85;;;11.40;74.00;;;;;;5051644;28;20021;-57
2022/10/16 07:21:26;;;;;;;6.97;4.93;;;11.50;74.20;;;;;;5044247;28;20044;-57
2022/10/16 07:23:56;;;;;;;4.93;3.85;;;11.50;74.30;;;;;;5038240;28;20494;-57
2022/10/16 07:26:23;;;;;;;6.38;4.70;;;11.60;74.30;;;;;;5045780;28;20036;-57
2022/10/16 07:28:50;;;;;;;6.05;4.53;;;11.60;74.30;;;;;;5051962;28;20473;-57
2022/10/16 07:31:17;;;;;;;6.97;5.35;;;11.70;74.20;;;;;;5042195;28;20072;-57
2022/10/16 07:33:45;;;;;;;6.35;4.28;;;11.80;74.10;;;;;;5036078;28;20041;-57
2022/10/16 07:36:12;;;;;;;6.53;4.93;;;11.80;74.00;;;;;;5051761;28;20032;-57
2022/10/16 07:38:38;;;;;;;5.85;4.35;;;11.90;73.90;;;;;;5039480;28;20021;-57
2022/10/16 07:41:06;;;;;;;6.95;4.72;;;11.90;73.70;;;;;;5042493;28;20068;-56
2022/10/16 07:43:33;;;;;;;6.78;5.00;;;12.00;73.70;;;;;;5037919;28;20064;-57
2022/10/16 07:45:58;;;;;;;7.32;5.00;;;12.00;73.60;;;;;;5041411;28;20034;-57
2022/10/16 07:48:27;;;;;;;7.85;5.15;;;12.10;73.50;;;;;;5035020;28;20426;-57
2022/10/16 07:51:00;;;;;;;6.57;5.07;;;12.10;73.40;;;;;;5036780;28;20044;-58
2022/10/16 07:53:27;;;;;;;5.47;4.18;;;12.10;73.40;;;;;;5036904;28;20024;-58
2022/10/16 07:55:56;;;;;;;6.03;4.78;;;12.10;73.40;;;;;;5039013;28;20037;-58
2022/10/16 07:58:22;;;;;;;5.65;4.22;;;12.10;73.40;;;;;;5037293;28;20078;-57
2022/10/16 08:00:47;;;;;;;6.13;4.60;;;12.10;73.50;;;;;;5048949;28;20037;-58
2022/10/16 08:03:13;;;;;;;5.32;4.15;;;12.10;73.40;;;;;;5036779;28;20039;-58
2022/10/16 08:05:38;;;;;;;5.15;4.38;;;12.10;73.40;;;;;;5040259;28;20018;-58
2022/10/16 08:08:04;;;;;;;5.72;4.20;;;12.10;73.40;;;;;;5047134;28;20025;-58
2022/10/16 08:10:31;;;;;;;4.75;3.75;;;12.10;73.50;;;;;;5050765;28;20025;-59
2022/10/16 08:12:57;;;;;;;7.80;4.47;;;12.10;73.60;;;;;;5041794;28;20021;-57
2022/10/16 08:15:22;;;;;;;6.72;5.10;;;12.10;73.60;;;;;;5041472;28;20487;-58
2022/10/16 08:18:03;;;;;;;4.63;3.85;;;12.10;73.40;;;;;;5039887;28;20036;-58
2022/10/16 08:20:30;;;;;;;5.95;4.28;;;12.10;73.30;;;;;;5034772;28;20037;-58
2022/10/16 08:22:56;;;;;;;5.00;3.85;;;12.00;73.40;;;;;;5031775;28;20554;-59
2022/10/16 08:25:23;;;;;;;5.97;3.88;;;12.00;73.40;;;;;;5044799;28;20111;-57
2022/10/16 08:27:50;;;;;;;6.43;4.55;;;12.00;73.40;;;;;;5040068;28;20380;-58
2022/10/16 08:30:17;;;;;;;5.18;3.90;;;12.00;73.40;;;;;;5033317;28;20017;-57
2022/10/16 08:32:43;;;;;;;5.63;4.55;;;12.00;74.10;;;;;;5037763;28;20112;-58
2022/10/16 08:35:10;;;;;;;6.05;4.78;;;12.00;73.30;;;;;;5031121;28;20108;-58
2022/10/16 08:37:36;;;;;;;5.30;4.40;;;12.00;73.20;;;;;;5029042;28;20029;-58
2022/10/16 08:40:02;;;;;;;4.65;3.92;;;11.90;73.20;;;;;;5028206;28;20131;-58
2022/10/16 08:42:52;;;;;;;5.70;4.40;;;11.90;73.20;;;;;;5031449;28;20041;-58
2022/10/16 08:45:23;;;;;;;4.90;3.70;;;11.90;73.30;;;;;;5031563;28;20017;-57
2022/10/16 08:48:04;;;;;;;5.40;4.22;;;11.80;73.40;;;;;;5031133;28;20033;-59
2022/10/16 08:50:32;;;;;;;5.45;4.10;;;11.80;73.50;;;;;;5031634;28;20021;-58
2022/10/16 08:52:58;;;;;;;4.68;3.55;;;11.80;73.50;;;;;;5038349;28;20029;-57
2022/10/16 08:55:30;;;;;;;5.15;4.15;;;11.90;73.50;;;;;;5042004;28;20507;-58
2022/10/16 08:57:56;;;;;;;5.20;4.10;;;11.80;73.30;;;;;;5036056;28;20180;-58
2022/10/16 09:00:21;;;;;;;6.35;4.30;;;11.90;73.40;;;;;;5049307;28;20167;-57
2022/10/16 09:03:20;;;;;;;5.13;4.25;;;11.90;73.20;;;;;;5041937;28;20048;-57
2022/10/16 09:05:59;;;;;;;5.47;4.05;;;11.90;73.00;;;;;;5033965;28;20030;-57
2022/10/16 09:08:54;;;;;;;4.32;3.22;;;11.90;73.00;;;;;;5038789;28;20262;-59
2022/10/16 09:11:50;;;;;;;5.65;4.40;;;11.90;72.90;;;;;;4996987;28;20498;-57
2022/10/16 09:14:36;;;;;;;5.85;3.78;;;11.90;72.90;;;;;;5033745;28;20104;-57
2022/10/16 09:17:11;;;;;;;5.13;4.15;;;11.90;72.90;;;;;;5034149;28;20233;-57
2022/10/16 09:19:46;;;;;;;5.22;4.38;;;11.90;72.70;;;;;;5027579;28;20363;-57
2022/10/16 09:22:16;;;;;;;4.65;4.10;;;11.90;72.50;;;;;;5021130;28;20029;-57
2022/10/16 09:24:42;;;;;;;4.55;4.00;;;11.90;72.10;;;;;;5046711;28;20391;-57
2022/10/16 09:27:11;;;;;;;6.35;4.35;;;11.90;72.20;;;;;;5050088;28;20021;-57
2022/10/16 09:29:37;;;;;;;5.38;4.15;;;11.90;72.20;;;;;;5030489;28;20060;-58
2022/10/16 09:32:13;;;;;;;4.68;3.88;;;11.90;72.10;;;;;;5050041;28;20069;-56
2022/10/16 09:34:45;;;;;;;5.38;4.10;;;11.90;71.80;;;;;;5053982;28;20040;-57
2022/10/16 09:37:13;;;;;;;;;;;11.80;71.40;;;;;;5062973;28;20021;-58
2022/10/16 09:39:52;;;;;;;5.15;3.75;;;11.80;71.20;;;;;;5054127;28;19955;-57
2022/10/16 09:42:32;;;;;;;4.53;3.38;;;11.70;71.10;;;;;;5053790;28;20708;-58
2022/10/16 09:44:58;;;;;;;4.90;3.55;;;11.70;70.60;;;;;;5053512;28;20120;-58
2022/10/16 09:47:29;;;;;;;4.45;3.75;;;11.60;70.40;;;;;;5035174;28;20116;-57
2022/10/16 09:50:21;;;;;;;4.47;3.58;;;11.60;70.20;;;;;;5053595;28;20021;-58
2022/10/16 09:52:47;;;;;;;4.28;3.33;;;11.50;69.90;;;;;;5052557;28;20439;-58
2022/10/16 09:55:15;;;;;;;3.72;3.33;;;11.50;69.60;;;;;;5052476;28;20029;-57
2022/10/16 09:57:52;;;;;;;3.72;3.15;;;11.40;69.60;;;;;;5053160;28;20029;-57
2022/10/16 10:00:19;;;;;;;3.85;3.08;;;11.40;69.40;;;;;;5045582;28;20413;-56
2022/10/16 10:02:46;;;;;;;4.70;3.30;;;11.40;69.20;;;;;;5052817;28;20029;-58
2022/10/16 10:05:27;;;;;;;3.25;2.95;;;11.30;68.90;;;;;;5051606;28;20115;-57
2022/10/16 10:08:05;;;;;;;3.78;3.15;;;11.30;68.90;;;;;;5053404;28;20039;-57
2022/10/16 10:10:34;;;;;;;2.80;2.50;;;11.30;68.90;;;;;;5053432;28;20033;-57
2022/10/16 10:13:00;;;;;;;2.88;2.20;;;11.30;69.00;;;;;;5052178;28;20467;-57
2022/10/16 10:15:32;;;;;;;2.78;2.42;;;11.30;68.80;;;;;;5053294;28;20029;-58
2022/10/16 10:17:58;;;;;;;2.58;2.20;;;11.30;68.50;;;;;;5052917;28;20060;-56
2022/10/16 10:20:31;;;;;;;2.53;2.30;;;11.30;68.30;;;;;;5052886;28;20063;-57
2022/10/16 10:22:57;;;;;;;2.97;2.72;;;11.40;68.40;;;;;;5041829;28;20503;-57
2022/10/16 10:25:35;;;;;;;2.72;2.53;;;11.40;68.30;;;;;;5053357;28;20059;-56
2022/10/16 10:28:30;;;;;;;2.50;2.30;;;11.40;68.00;;;;;;5053246;28;20021;-56
2022/10/16 10:31:12;;;;;;;2.30;2.13;;;11.40;67.70;;;;;;5048065;28;20099;-58
2022/10/16 10:33:52;;;;;;;3.28;2.75;;;11.40;67.70;;;;;;5033516;28;20030;-57
2022/10/16 10:36:33;;;;;;;4.85;2.70;;;11.40;67.80;;;;;;5034168;28;20029;-57
2022/10/16 10:39:03;;;;;;;2.83;2.50;;;11.40;67.70;;;;;;5032189;28;20025;-57
2022/10/16 10:42:12;;;;;;;2.60;2.40;;;11.40;67.60;;;;;;5032723;28;20366;-57
2022/10/16 10:45:15;;;;;;;2.40;2.20;;;11.40;67.10;;;;;;5035292;28;20095;-57
2022/10/16 10:48:00;;;;;;;2.60;2.40;;;11.30;66.90;;;;;;5031786;28;20021;-57
2022/10/16 10:50:30;;;;;;;3.25;2.78;;;11.30;66.60;;;;;;5033968;28;20425;-57
2022/10/16 10:53:24;;;;;;;3.20;2.90;;;11.20;66.70;;;;;;5039252;28;20037;-57
2022/10/16 10:56:06;;;;;;;2.90;2.25;;;11.20;66.70;;;;;;5044837;28;20281;-57
2022/10/16 10:58:41;;;;;;;2.40;2.30;;;11.20;66.80;;;;;;5033934;28;20071;-57
2022/10/16 11:01:31;;;;;;;3.05;2.72;;;11.10;66.70;;;;;;5033935;28;20108;-57
2022/10/16 11:04:09;;;;;;;3.00;2.70;;;11.10;66.70;;;;;;5043276;28;20460;-57
2022/10/16 11:06:50;;;;;;;2.83;2.55;;;11.10;66.60;;;;;;5037075;28;20025;-56
2022/10/16 11:09:23;;;;;;;2.95;2.60;;;11.10;66.70;;;;;;5045103;28;20017;-57
2022/10/16 11:11:58;;;;;;;2.60;2.40;;;11.10;66.80;;;;;;5034435;28;20072;-57
2022/10/16 11:14:31;;;;;;;2.80;2.50;;;11.20;66.60;;;;;;5049750;28;20083;-58
2022/10/16 11:17:10;;;;;;;2.70;2.50;;;11.20;66.70;;;;;;5041121;28;20091;-58
2022/10/16 11:19:51;;;;;;;3.35;2.60;;;11.20;66.70;;;;;;5035811;28;20029;-58
2022/10/16 11:22:24;;;;;;;3.00;2.63;;;11.20;66.60;;;;;;5047648;28;20024;-56
2022/10/16 11:25:02;;;;;;;2.60;2.40;;;11.20;66.50;;;;;;5044920;28;20039;-58
2022/10/16 11:27:57;;;;;;;2.90;2.42;;;11.20;66.20;;;;;;5031410;28;20024;-58
2022/10/16 11:30:28;;;;;;;3.08;2.78;;;11.20;66.00;;;;;;4989791;28;20457;-57
2022/10/16 11:33:12;;;;;;;3.08;2.60;;;11.20;66.00;;;;;;5049643;28;20430;-57
2022/10/16 11:35:56;;;;;;;3.00;2.70;;;11.20;65.70;;;;;;5049789;28;20029;-57
2022/10/16 11:38:34;;;;;;;3.03;2.60;;;11.20;65.80;;;;;;5049595;28;20036;-57
2022/10/16 11:41:15;;;;;;;3.20;2.65;;;11.20;65.80;;;;;;5040223;28;20032;-58
2022/10/16 11:43:53;;;;;;;3.03;2.60;;;11.30;65.90;;;;;;5049947;28;20400;-57
2022/10/16 11:46:22;;;;;;;2.55;2.35;;;11.30;65.90;;;;;;5051049;28;20390;-57
2022/10/16 11:48:56;;;;;;;2.80;2.50;;;11.30;65.90;;;;;;5043485;28;20384;-57
2022/10/16 11:51:47;;;;;;;3.20;2.90;;;11.30;66.10;;;;;;5051520;28;20036;-57
2022/10/16 11:54:50;;;;;;;3.28;2.80;;;11.30;66.10;;;;;;5051753;28;20126;-57
2022/10/16 11:57:29;;;;;;;2.90;2.58;;;11.30;65.90;;;;;;5046695;28;20021;-58
2022/10/16 12:00:04;;;;;;;2.67;2.47;;;11.30;66.60;;;;;;5051461;28;20028;-56
2022/10/16 12:02:56;;;;;;;2.70;2.50;;;11.30;65.90;;;;;;5050842;28;20122;-57
2022/10/16 12:05:34;;;;;;;3.58;2.75;;;11.40;66.00;;;;;;5047565;28;20025;-57
2022/10/16 12:08:10;;;;;;;3.92;2.75;;;11.40;65.90;;;;;;5049657;28;20117;-57
2022/10/16 12:10:38;;;;;;;3.15;2.80;;;11.30;65.80;;;;;;5051252;28;20040;-58
2022/10/16 12:13:05;;;;;;;2.55;2.35;;;11.40;65.80;;;;;;5050106;28;20060;-57
2022/10/16 12:15:34;;;;;;;2.80;2.55;;;11.40;65.70;;;;;;5051100;28;20104;-57
2022/10/16 12:18:00;;;;;;;3.50;2.70;;;11.40;65.80;;;;;;5051293;28;20039;-57
2022/10/16 12:20:32;;;;;;;3.03;2.53;;;11.30;65.70;;;;;;5049243;28;20456;-58
2022/10/16 12:23:02;;;;;;;2.60;2.40;;;11.40;65.90;;;;;;5051132;28;20071;-57
2022/10/16 12:25:33;;;;;;;2.85;2.53;;;11.40;66.70;;;;;;5050482;28;20033;-57
2022/10/16 12:28:02;;;;;;;2.70;2.50;;;11.40;65.90;;;;;;5050760;28;20480;-57
2022/10/16 12:30:30;;;;;;;2.88;2.50;;;11.50;65.80;;;;;;5052432;28;20025;-57
2022/10/16 12:33:19;;;;;;;2.40;2.20;;;11.40;65.70;;;;;;5049894;28;20043;-58
2022/10/16 12:35:45;;;;;;;2.80;2.50;;;11.50;65.80;;;;;;5036758;28;20025;-57
2022/10/16 12:38:27;;;;;;;2.85;2.55;;;11.50;65.70;;;;;;5049613;28;20029;-57
2022/10/16 12:40:55;;;;;;;;;;;11.50;65.70;;;;;;5050419;28;20028;-57
2022/10/16 12:43:21;;;;;;;3.25;2.45;;;11.50;65.60;;;;;;5049415;28;19917;-57
2022/10/16 12:45:46;;;;;;;2.97;2.67;;;11.50;65.70;;;;;;5049566;28;20021;-58
2022/10/16 12:48:22;;;;;;;2.88;2.45;;;11.50;65.60;;;;;;5050477;28;20017;-57
2022/10/16 12:50:48;;;;;;;2.63;2.42;;;11.50;65.40;;;;;;5050235;28;20036;-57
2022/10/16 12:53:20;;;;;;;2.42;2.13;;;11.50;65.40;;;;;;5049391;28;20025;-57
2022/10/16 12:56:14;;;;;;;2.20;2.10;;;11.60;65.40;;;;;;5050740;28;20021;-57
2022/10/16 12:59:06;;;;;;;2.92;2.60;;;11.60;65.30;;;;;;5041893;28;20044;-58
2022/10/16 13:01:42;;;;;;;2.33;2.05;;;11.60;65.20;;;;;;5031278;28;20510;-57
2022/10/16 13:04:10;;;;;;;2.55;2.35;;;11.60;65.20;;;;;;5050323;28;20033;-58
2022/10/16 13:06:55;;;;;;;3.13;2.80;;;11.60;65.20;;;;;;5039396;28;20049;-57
2022/10/16 13:09:23;;;;;;;2.53;2.33;;;11.60;65.20;;;;;;5048340;28;20017;-57